createdAt,value
2017-09-26T00:01:02.230Z,71.93
2017-09-26T00:03:28.468Z,72.12
2017-09-26T00:05:54.705Z,72.30
2017-09-26T00:08:20.925Z,72.69
2017-09-26T00:10:47.160Z,72.91
2017-09-26T00:13:13.395Z,72.91
2017-09-26T00:15:39.609Z,72.65
2017-09-26T00:18:05.758Z,72.33
2017-09-26T00:20:31.976Z,72.04
2017-09-26T00:22:58.209Z,71.89
2017-09-26T00:25:24.440Z,71.88
2017-09-26T00:27:50.660Z,71.87
2017-09-26T00:30:16.893Z,73.00
2017-09-26T00:32:43.133Z,73.68
2017-09-26T00:35:09.348Z,73.71
2017-09-26T00:37:35.580Z,74.05
2017-09-26T00:40:01.860Z,74.01
2017-09-26T00:42:28.040Z,74.08
2017-09-26T00:44:54.271Z,74.89
2017-09-26T00:47:20.503Z,74.75
2017-09-26T00:49:46.734Z,74.84
2017-09-26T00:52:12.960Z,74.62
2017-09-26T00:54:39.203Z,74.12
2017-09-26T00:57:05.437Z,74.49
2017-09-26T00:59:31.646Z,74.54
2017-09-26T01:01:57.884Z,74.53
2017-09-26T01:04:24.098Z,74.29
2017-09-26T01:06:50.324Z,73.02
2017-09-26T01:09:16.597Z,72.75
2017-09-26T01:11:42.791Z,72.95
2017-09-26T01:14:09.030Z,73.40
2017-09-26T01:16:35.275Z,73.38
2017-09-26T01:19:01.469Z,73.52
2017-09-26T01:21:27.633Z,73.38
2017-09-26T01:23:53.856Z,73.20
2017-09-26T01:26:20.070Z,73.18
2017-09-26T01:28:46.295Z,72.89
2017-09-26T01:31:12.536Z,73.07
2017-09-26T01:33:38.768Z,73.31
2017-09-26T01:36:04.999Z,73.09
2017-09-26T01:38:31.229Z,73.43
2017-09-26T01:40:57.457Z,73.35
2017-09-26T01:43:23.686Z,73.43
2017-09-26T01:45:49.917Z,73.17
2017-09-26T01:48:16.141Z,73.15
2017-09-26T01:50:42.366Z,73.08
2017-09-26T01:53:08.585Z,73.72
2017-09-26T01:55:34.840Z,74.49
2017-09-26T01:58:01.065Z,74.53
2017-09-26T02:00:27.288Z,74.43
2017-09-26T02:02:53.530Z,73.75
2017-09-26T02:05:19.766Z,74.16
2017-09-26T02:07:45.990Z,74.82
2017-09-26T02:10:12.212Z,74.49
2017-09-26T02:12:38.427Z,74.21
2017-09-26T02:15:04.673Z,74.10
2017-09-26T02:17:30.900Z,73.90
2017-09-26T02:19:57.126Z,74.07
2017-09-26T02:22:23.355Z,74.65
2017-09-26T02:24:49.591Z,74.32
2017-09-26T02:27:15.831Z,74.77
2017-09-26T02:29:42.066Z,75.19
2017-09-26T02:32:08.281Z,75.16
2017-09-26T02:34:34.503Z,74.52
2017-09-26T02:37:00.731Z,74.57
2017-09-26T02:39:26.975Z,74.79
2017-09-26T02:41:53.192Z,75.03
2017-09-26T02:44:19.434Z,75.37
2017-09-26T02:46:45.671Z,75.46
2017-09-26T02:49:11.894Z,75.85
2017-09-26T02:51:38.534Z,76.33
2017-09-26T02:54:04.759Z,76.07
2017-09-26T02:56:30.972Z,75.88
2017-09-26T02:58:57.201Z,76.40
2017-09-26T03:01:23.443Z,77.02
2017-09-26T03:03:49.687Z,77.15
2017-09-26T03:06:15.829Z,76.89
2017-09-26T03:08:42.023Z,76.60
2017-09-26T03:11:08.260Z,76.76
2017-09-26T03:13:34.497Z,76.42
2017-09-26T03:16:00.724Z,76.67
2017-09-26T03:18:26.951Z,77.20
2017-09-26T03:20:53.189Z,78.10
2017-09-26T03:23:19.420Z,77.59
2017-09-26T03:25:45.604Z,77.72
2017-09-26T03:28:11.861Z,77.27
2017-09-26T03:30:38.092Z,76.69
2017-09-26T03:33:04.328Z,76.64
2017-09-26T03:35:30.563Z,76.94
2017-09-26T03:37:56.811Z,77.16
2017-09-26T03:40:23.022Z,77.07
2017-09-26T03:42:49.251Z,76.65
2017-09-26T03:45:15.483Z,76.71
2017-09-26T03:47:41.701Z,76.46
2017-09-26T03:50:07.932Z,76.48
2017-09-26T03:52:34.078Z,76.60
2017-09-26T03:55:00.293Z,76.65
2017-09-26T03:57:26.520Z,76.77
2017-09-26T03:59:52.762Z,76.98
2017-09-26T04:02:18.989Z,77.06
2017-09-26T04:04:45.201Z,76.77
2017-09-26T04:07:11.467Z,76.77
2017-09-26T04:09:37.675Z,76.94
2017-09-26T04:12:03.902Z,77.72
2017-09-26T04:14:30.128Z,76.96
2017-09-26T04:16:56.355Z,77.34
2017-09-26T04:19:22.581Z,76.58
2017-09-26T04:21:48.824Z,76.53
2017-09-26T04:24:15.045Z,76.51
2017-09-26T04:26:41.279Z,76.62
2017-09-26T04:29:07.512Z,76.18
2017-09-26T04:31:33.745Z,76.67
2017-09-26T04:33:59.912Z,76.42
2017-09-26T04:36:26.098Z,76.42
2017-09-26T04:38:52.331Z,76.51
2017-09-26T04:41:18.566Z,76.68
2017-09-26T04:43:44.769Z,76.64
2017-09-26T04:46:11.021Z,76.27
2017-09-26T04:48:37.229Z,75.93
2017-09-26T04:51:03.479Z,75.98
2017-09-26T04:53:29.703Z,75.91
2017-09-26T04:55:55.940Z,76.04
2017-09-26T04:58:22.159Z,76.28
2017-09-26T05:00:48.390Z,76.47
2017-09-26T05:03:14.614Z,76.66
2017-09-26T05:05:40.793Z,76.81
2017-09-26T05:08:07.004Z,76.89
2017-09-26T05:10:33.202Z,76.93
2017-09-26T05:12:59.358Z,77.00
2017-09-26T05:15:25.554Z,76.92
2017-09-26T05:17:51.793Z,77.14
2017-09-26T05:20:18.050Z,77.19
2017-09-26T05:22:44.254Z,76.88
2017-09-26T05:25:10.490Z,76.62
2017-09-26T05:27:36.722Z,76.77
2017-09-26T05:30:02.950Z,76.70
2017-09-26T05:32:29.182Z,76.51
2017-09-26T05:34:55.432Z,76.38
2017-09-26T05:37:21.634Z,76.47
2017-09-26T05:39:47.864Z,76.16
2017-09-26T05:42:14.088Z,75.95
2017-09-26T05:44:40.324Z,75.85
2017-09-26T05:47:06.538Z,75.85
2017-09-26T05:49:32.787Z,75.78
2017-09-26T05:51:58.994Z,75.25
2017-09-26T05:54:25.229Z,75.07
2017-09-26T05:56:51.471Z,74.93
2017-09-26T05:59:17.729Z,74.47
2017-09-26T06:01:43.945Z,74.38
2017-09-26T06:04:10.155Z,74.90
2017-09-26T06:06:36.372Z,74.89
2017-09-26T06:09:02.618Z,74.77
2017-09-26T06:11:28.843Z,74.60
2017-09-26T06:13:55.072Z,74.47
2017-09-26T06:16:21.308Z,74.37
2017-09-26T06:18:47.531Z,74.32
2017-09-26T06:21:13.755Z,74.10
2017-09-26T06:23:39.992Z,74.23
2017-09-26T06:26:06.222Z,73.88
2017-09-26T06:28:32.481Z,73.96
2017-09-26T06:30:58.717Z,72.93
2017-09-26T06:33:24.919Z,72.53
2017-09-26T06:35:51.139Z,72.33
2017-09-26T06:38:17.385Z,72.73
2017-09-26T06:40:43.538Z,72.61
2017-09-26T06:43:09.749Z,72.91
2017-09-26T06:45:36.033Z,73.37
2017-09-26T06:48:02.302Z,73.70
2017-09-26T06:50:28.519Z,73.98
2017-09-26T06:52:54.746Z,74.17
2017-09-26T06:55:20.984Z,73.85
2017-09-26T06:57:47.218Z,73.70
2017-09-26T07:00:13.452Z,73.50
2017-09-26T07:02:39.676Z,73.48
2017-09-26T07:05:05.904Z,73.47
2017-09-26T07:07:32.159Z,73.24
2017-09-26T07:09:58.357Z,72.89
2017-09-26T07:12:24.622Z,72.08
2017-09-26T07:14:50.841Z,71.76
2017-09-26T07:17:17.042Z,71.62
2017-09-26T07:19:43.279Z,71.89
2017-09-26T07:22:09.533Z,72.21
2017-09-26T07:24:35.736Z,72.37
2017-09-26T07:27:01.964Z,72.52
2017-09-26T07:29:28.205Z,71.90
2017-09-26T07:31:54.434Z,72.24
2017-09-26T07:34:20.641Z,72.13
2017-09-26T07:36:46.908Z,71.60
2017-09-26T07:39:13.129Z,71.61
2017-09-26T07:41:39.340Z,72.29
2017-09-26T07:44:05.571Z,71.80
2017-09-26T07:46:31.820Z,71.73
2017-09-26T07:48:58.030Z,71.32
2017-09-26T07:51:24.279Z,71.70
2017-09-26T07:53:50.490Z,71.32
2017-09-26T07:56:16.735Z,71.53
2017-09-26T07:58:42.963Z,70.92
2017-09-26T08:01:09.174Z,70.81
2017-09-26T08:03:35.316Z,69.78
2017-09-26T08:06:01.560Z,69.61
2017-09-26T08:08:27.771Z,68.90
2017-09-26T08:10:53.998Z,67.94
2017-09-26T08:13:20.244Z,66.28
2017-09-26T08:15:46.387Z,65.18
2017-09-26T08:18:12.584Z,64.05
2017-09-26T08:20:38.839Z,64.43
2017-09-26T08:23:05.041Z,64.19
2017-09-26T08:25:31.292Z,64.69
2017-09-26T08:27:57.504Z,64.29
2017-09-26T08:30:23.655Z,64.83
2017-09-26T08:32:49.867Z,64.37
2017-09-26T08:35:16.086Z,64.65
2017-09-26T08:37:42.309Z,64.70
2017-09-26T08:40:08.559Z,63.72
2017-09-26T08:42:34.785Z,62.25
2017-09-26T08:45:01.023Z,60.74
2017-09-26T08:47:27.179Z,59.52
2017-09-26T08:49:53.350Z,59.58
2017-09-26T08:52:19.529Z,61.06
2017-09-26T08:54:45.695Z,61.10
2017-09-26T08:57:11.870Z,60.16
2017-09-26T08:59:38.030Z,59.38
2017-09-26T09:02:04.182Z,58.00
2017-09-26T09:04:30.334Z,59.47
2017-09-26T09:06:56.510Z,59.64
2017-09-26T09:09:22.668Z,58.75
2017-09-26T09:11:48.814Z,59.22
2017-09-26T09:14:14.970Z,60.12
2017-09-26T09:16:41.128Z,60.41
2017-09-26T09:19:07.292Z,60.52
2017-09-26T09:21:33.460Z,61.18
2017-09-26T09:23:59.654Z,62.31
2017-09-26T09:26:25.913Z,63.37
2017-09-26T09:28:52.113Z,64.02
2017-09-26T09:31:18.367Z,65.61
2017-09-26T09:33:44.579Z,65.94
2017-09-26T09:36:10.810Z,65.63
2017-09-26T09:38:37.055Z,64.86
2017-09-26T09:41:03.269Z,64.62
2017-09-26T09:43:29.513Z,63.54
2017-09-26T09:45:55.757Z,62.63
2017-09-26T09:48:21.956Z,62.72
2017-09-26T09:50:48.197Z,63.05
2017-09-26T09:53:14.433Z,62.79
2017-09-26T09:55:40.659Z,63.02
2017-09-26T09:58:06.885Z,62.26
2017-09-26T10:00:33.108Z,61.70
2017-09-26T10:02:59.343Z,62.36
2017-09-26T10:05:25.560Z,62.19
2017-09-26T10:07:51.827Z,62.69
2017-09-26T10:10:18.039Z,63.08
2017-09-26T10:12:44.269Z,63.28
2017-09-26T10:15:10.475Z,63.84
2017-09-26T10:17:36.724Z,63.35
2017-09-26T10:20:02.968Z,63.46
2017-09-26T10:22:29.182Z,62.21
2017-09-26T10:24:55.404Z,62.36
2017-09-26T10:27:21.651Z,62.39
2017-09-26T10:29:47.879Z,61.42
2017-09-26T10:32:14.105Z,62.50
2017-09-26T10:34:40.335Z,62.36
2017-09-26T10:37:06.593Z,61.51
2017-09-26T10:39:32.814Z,61.91
2017-09-26T10:41:59.024Z,61.65
2017-09-26T10:44:25.243Z,60.87
2017-09-26T10:46:51.521Z,60.36
2017-09-26T10:49:17.696Z,59.35
2017-09-26T10:51:43.930Z,58.49
2017-09-26T10:54:10.172Z,57.93
2017-09-26T10:56:36.378Z,57.46
2017-09-26T10:59:02.630Z,57.40
2017-09-26T11:01:28.861Z,57.75
2017-09-26T11:03:55.096Z,59.04
2017-09-26T11:06:21.347Z,58.85
2017-09-26T11:08:47.536Z,58.40
2017-09-26T11:11:13.777Z,59.60
2017-09-26T11:13:40.013Z,60.88
2017-09-26T11:16:06.235Z,61.60
2017-09-26T11:18:32.478Z,61.66
2017-09-26T11:20:58.711Z,61.64
2017-09-26T11:23:24.934Z,61.68
2017-09-26T11:25:51.143Z,61.76
2017-09-26T11:28:17.394Z,61.79
2017-09-26T11:30:43.593Z,61.07
2017-09-26T11:33:09.849Z,61.61
2017-09-26T11:35:36.089Z,61.85
2017-09-26T11:38:02.298Z,62.49
2017-09-26T11:40:28.545Z,62.59
2017-09-26T11:42:55.268Z,62.29
2017-09-26T11:58:21.513Z,62.35
2017-09-26T12:00:47.747Z,62.47
2017-09-26T12:03:13.958Z,62.53
2017-09-26T12:05:40.186Z,62.92
2017-09-26T12:08:06.428Z,63.06
2017-09-26T12:10:32.646Z,63.95
2017-09-26T12:12:58.879Z,64.48
2017-09-26T12:15:25.107Z,64.96
2017-09-26T12:17:51.327Z,65.24
2017-09-26T12:20:17.595Z,65.28
2017-09-26T12:22:43.785Z,65.93
2017-09-26T12:25:10.021Z,66.66
2017-09-26T12:27:36.276Z,67.63
2017-09-26T12:30:02.475Z,69.03
2017-09-26T12:32:28.704Z,69.86
2017-09-26T12:34:54.964Z,69.86
2017-09-26T12:37:21.168Z,70.07
2017-09-26T12:39:47.404Z,70.46
2017-09-26T12:42:13.623Z,72.06
2017-09-26T12:44:39.888Z,73.21
2017-09-26T12:47:06.097Z,74.18
2017-09-26T12:49:32.335Z,77.68
2017-09-26T12:51:58.576Z,79.39
2017-09-26T12:54:24.782Z,80.16
2017-09-26T12:56:50.966Z,81.75
2017-09-26T12:59:17.224Z,83.72
2017-09-26T13:01:43.485Z,85.82
2017-09-26T13:04:09.678Z,86.64
2017-09-26T13:06:35.942Z,87.34
2017-09-26T13:09:02.312Z,88.68
2017-09-26T13:11:28.532Z,87.99
2017-09-26T13:13:54.718Z,88.97
2017-09-26T13:16:21.970Z,88.97
2017-09-26T13:18:48.265Z,89.68
2017-09-26T13:21:14.608Z,89.97
2017-09-26T13:23:40.895Z,89.40
2017-09-26T13:26:07.138Z,89.82
2017-09-26T13:28:33.361Z,90.37
2017-09-26T13:30:59.622Z,90.62
2017-09-26T13:33:25.920Z,90.33
2017-09-26T13:35:52.133Z,90.19
2017-09-26T13:38:18.376Z,90.16
2017-09-26T13:40:44.584Z,90.26
2017-09-26T13:43:10.816Z,89.87
2017-09-26T13:45:37.102Z,89.56
2017-09-26T13:48:03.394Z,90.39
2017-09-26T13:50:29.599Z,90.11
2017-09-26T13:52:55.830Z,89.88
2017-09-26T13:55:22.010Z,89.63
2017-09-26T13:57:48.200Z,89.20
2017-09-26T14:00:14.454Z,89.79
2017-09-26T14:02:41.190Z,89.81
2017-09-26T14:05:07.419Z,89.48
2017-09-26T14:07:33.632Z,90.15
2017-09-26T14:09:59.871Z,90.10
2017-09-26T14:12:26.083Z,89.88
2017-09-26T14:14:52.314Z,89.54
2017-09-26T14:17:18.587Z,89.15
2017-09-26T14:19:44.764Z,88.53
2017-09-26T14:22:10.997Z,87.80
2017-09-26T14:24:37.223Z,87.94
2017-09-26T14:27:03.462Z,88.21
2017-09-26T14:29:29.682Z,88.80
2017-09-26T14:31:55.935Z,88.60
2017-09-26T14:34:22.159Z,88.43
2017-09-26T14:36:48.384Z,88.32
2017-09-26T14:39:14.615Z,88.14
2017-09-26T14:41:40.842Z,89.33
2017-09-26T14:44:07.099Z,88.91
2017-09-26T14:46:33.317Z,88.58
2017-09-26T14:48:59.569Z,88.25
2017-09-26T14:51:25.789Z,88.08
2017-09-26T14:53:52.018Z,88.38
2017-09-26T14:56:18.244Z,89.09
2017-09-26T14:58:44.462Z,88.67
2017-09-26T15:01:10.692Z,89.79
2017-09-26T15:03:36.913Z,89.94
2017-09-26T15:06:03.141Z,90.20
2017-09-26T15:08:29.400Z,90.13
2017-09-26T15:10:55.570Z,90.19
2017-09-26T15:13:21.824Z,90.40
2017-09-26T15:15:48.033Z,90.57
2017-09-26T15:18:14.291Z,90.37
2017-09-26T15:20:40.560Z,90.95
2017-09-26T15:23:06.749Z,90.99
2017-09-26T15:25:32.982Z,90.81
2017-09-26T15:27:59.203Z,90.96
2017-09-26T15:30:25.435Z,91.03
2017-09-26T15:32:51.609Z,90.93
2017-09-26T15:35:17.796Z,90.50
2017-09-26T15:37:44.038Z,90.59
2017-09-26T15:40:10.295Z,90.18
2017-09-26T15:42:36.477Z,90.18
2017-09-26T15:45:02.721Z,90.20
2017-09-26T15:47:28.949Z,89.83
2017-09-26T15:49:55.189Z,90.04
2017-09-26T15:52:21.397Z,89.82
2017-09-26T15:54:47.641Z,90.25
2017-09-26T15:57:13.871Z,90.40
2017-09-26T15:59:40.085Z,90.24
2017-09-26T16:02:06.332Z,91.10
2017-09-26T16:04:32.553Z,90.95
2017-09-26T16:06:58.790Z,90.90
2017-09-26T16:09:25.041Z,90.91
2017-09-26T16:11:51.252Z,90.82
2017-09-26T16:14:17.486Z,91.05
2017-09-26T16:16:43.701Z,91.03
2017-09-26T16:19:09.946Z,91.19
2017-09-26T16:21:36.158Z,91.24
2017-09-26T16:24:02.398Z,91.37
2017-09-26T16:26:28.622Z,91.10
2017-09-26T16:28:54.854Z,91.32
2017-09-26T16:31:21.084Z,91.28
2017-09-26T16:33:47.314Z,91.20
2017-09-26T16:36:13.556Z,91.46
2017-09-26T16:38:39.764Z,91.55
2017-09-26T16:41:06.002Z,91.23
2017-09-26T16:43:32.237Z,91.52
2017-09-26T16:45:58.481Z,91.54
2017-09-26T16:48:24.690Z,91.23
2017-09-26T16:50:50.909Z,91.22
2017-09-26T16:53:17.155Z,91.04
2017-09-26T16:55:43.378Z,90.94
2017-09-26T16:58:09.604Z,91.09
2017-09-26T17:00:35.839Z,90.92
2017-09-26T17:03:02.081Z,90.86
2017-09-26T17:05:28.294Z,91.14
2017-09-26T17:07:54.516Z,91.23
2017-09-26T17:10:20.763Z,91.57
2017-09-26T17:12:46.980Z,91.57
2017-09-26T17:15:13.201Z,91.46
2017-09-26T17:17:39.432Z,91.56
2017-09-26T17:20:05.674Z,91.54
2017-09-26T17:22:31.899Z,91.65
2017-09-26T17:24:58.139Z,91.51
2017-09-26T17:27:24.351Z,91.58
2017-09-26T17:29:50.590Z,91.72
2017-09-26T17:32:16.804Z,91.69
2017-09-26T17:34:43.034Z,91.71
2017-09-26T17:37:09.317Z,91.68
2017-09-26T17:39:35.498Z,91.73
2017-09-26T17:42:01.731Z,91.77
2017-09-26T17:44:27.891Z,91.73
2017-09-26T17:46:54.091Z,91.70
2017-09-26T17:49:20.320Z,91.30
2017-09-26T17:51:46.551Z,91.18
2017-09-26T17:54:12.774Z,91.44
2017-09-26T17:56:39.013Z,91.59
2017-09-26T17:59:05.240Z,91.44
2017-09-26T18:01:31.462Z,91.27
2017-09-26T18:03:57.693Z,90.76
2017-09-26T18:06:23.939Z,90.66
2017-09-26T18:08:50.177Z,90.55
2017-09-26T18:11:16.394Z,90.77
2017-09-26T18:13:42.625Z,90.54
2017-09-26T18:16:08.842Z,90.97
2017-09-26T18:18:35.080Z,90.75
2017-09-26T18:21:01.320Z,90.96
2017-09-26T18:23:27.537Z,91.22
2017-09-26T18:25:53.782Z,91.34
2017-09-26T18:28:19.986Z,91.35
2017-09-26T18:30:46.213Z,91.14
2017-09-26T18:33:12.380Z,91.47
2017-09-26T18:35:38.578Z,91.29
2017-09-26T18:38:04.812Z,91.14
2017-09-26T18:40:31.027Z,91.32
2017-09-26T18:42:57.286Z,91.02
2017-09-26T18:45:23.506Z,90.77
2017-09-26T18:47:49.722Z,91.23
2017-09-26T18:50:15.982Z,91.57
2017-09-26T18:52:42.200Z,91.49
2017-09-26T18:55:08.428Z,91.29
2017-09-26T18:57:34.631Z,90.91
2017-09-26T19:00:00.887Z,90.45
2017-09-26T19:02:27.105Z,90.78
2017-09-26T19:04:53.340Z,90.16
2017-09-26T19:07:19.568Z,90.45
2017-09-26T19:09:45.801Z,90.12
2017-09-26T19:12:12.026Z,90.28
2017-09-26T19:14:38.256Z,90.65
2017-09-26T19:17:04.487Z,90.72
2017-09-26T19:19:30.706Z,90.96
2017-09-26T19:21:56.955Z,91.19
2017-09-26T19:24:23.156Z,90.68
2017-09-26T19:26:49.399Z,90.65
2017-09-26T19:29:16.635Z,90.77
2017-09-26T19:31:42.888Z,89.74
2017-09-26T19:34:09.102Z,90.32
2017-09-26T19:36:35.339Z,90.53
2017-09-26T19:39:01.562Z,90.21
2017-09-26T19:41:27.791Z,89.68
2017-09-26T19:43:54.044Z,90.34
2017-09-26T19:46:20.294Z,90.20
2017-09-26T19:48:46.484Z,89.17
2017-09-26T19:51:12.656Z,89.35
2017-09-26T19:53:38.845Z,89.60
2017-09-26T19:56:05.093Z,89.48
2017-09-26T19:58:31.256Z,90.06
2017-09-26T20:00:57.431Z,90.43
2017-09-26T20:03:23.679Z,89.12
2017-09-26T20:05:49.883Z,90.28
2017-09-26T20:08:16.049Z,89.21
2017-09-26T20:10:42.264Z,89.33
2017-09-26T20:13:08.486Z,89.41
2017-09-26T20:15:34.713Z,90.08
2017-09-26T20:18:00.953Z,89.34
2017-09-26T20:20:27.179Z,88.92
2017-09-26T20:22:53.402Z,89.25
2017-09-26T20:25:19.644Z,89.34
2017-09-26T20:27:45.871Z,89.20
2017-09-26T20:30:12.104Z,88.55
2017-09-26T20:32:38.311Z,89.03
2017-09-26T20:35:04.562Z,88.61
2017-09-26T20:37:30.784Z,88.73
2017-09-26T20:39:56.931Z,88.03
2017-09-26T20:42:23.126Z,87.93
2017-09-26T20:44:49.371Z,88.09
2017-09-26T20:47:15.602Z,88.67
2017-09-26T20:49:41.834Z,87.98
2017-09-26T20:52:08.050Z,88.49
2017-09-26T20:54:34.213Z,87.82
2017-09-26T20:57:00.422Z,88.03
2017-09-26T20:59:26.639Z,87.81
2017-09-26T21:01:52.868Z,87.36
2017-09-26T21:04:19.114Z,88.20
2017-09-26T21:06:45.326Z,88.17
2017-09-26T21:09:11.562Z,87.43
2017-09-26T21:11:37.783Z,87.54
2017-09-26T21:14:04.054Z,87.61
2017-09-26T21:16:30.265Z,87.44
2017-09-26T21:18:56.513Z,87.91
2017-09-26T21:21:22.716Z,87.65
2017-09-26T21:23:48.931Z,88.34
2017-09-26T21:26:15.180Z,87.22
2017-09-26T21:28:41.386Z,87.20
2017-09-26T21:31:07.623Z,87.70
2017-09-26T21:33:33.851Z,86.74
2017-09-26T21:36:00.098Z,87.42
2017-09-26T21:38:26.336Z,86.39
2017-09-26T21:40:52.543Z,85.28
2017-09-26T21:43:18.792Z,85.65
2017-09-26T21:45:45.036Z,85.70
2017-09-26T21:48:11.272Z,85.00
2017-09-26T21:50:37.468Z,84.89
2017-09-26T21:53:03.694Z,85.36
2017-09-26T21:55:29.932Z,85.45
2017-09-26T21:57:56.178Z,84.12
2017-09-26T22:00:22.399Z,83.99
2017-09-26T22:02:48.617Z,84.48
2017-09-26T22:05:14.882Z,84.17
2017-09-26T22:07:41.090Z,83.96
2017-09-26T22:10:07.312Z,83.03
2017-09-26T22:12:33.552Z,83.96
2017-09-26T22:14:59.780Z,83.90
2017-09-26T22:17:25.987Z,84.34
2017-09-26T22:19:52.250Z,83.18
2017-09-26T22:22:18.451Z,83.07
2017-09-26T22:24:44.709Z,81.46
2017-09-26T22:27:10.911Z,82.51
2017-09-26T22:29:37.169Z,82.41
2017-09-26T22:32:03.399Z,82.01
2017-09-26T22:34:29.630Z,81.81
2017-09-26T22:36:55.814Z,82.85
2017-09-26T22:39:22.077Z,82.59
2017-09-26T22:41:48.316Z,81.58
2017-09-26T22:44:14.542Z,83.65
2017-09-26T22:46:40.768Z,83.66
2017-09-26T22:49:06.974Z,82.32
2017-09-26T22:51:33.235Z,82.87
2017-09-26T22:53:59.430Z,82.70
2017-09-26T22:56:25.685Z,82.27
2017-09-26T22:58:51.931Z,82.63
2017-09-26T23:01:18.169Z,82.46
2017-09-26T23:03:44.396Z,82.19
2017-09-26T23:06:10.601Z,82.54
2017-09-26T23:08:36.822Z,81.45
2017-09-26T23:11:03.052Z,81.84
2017-09-26T23:13:29.301Z,81.29
2017-09-26T23:15:55.518Z,82.37
2017-09-26T23:18:21.727Z,80.46
2017-09-26T23:20:48.055Z,79.77
2017-09-26T23:23:14.320Z,81.56
2017-09-26T23:25:40.561Z,80.48
2017-09-26T23:28:06.769Z,79.73
2017-09-26T23:30:33.016Z,80.23
2017-09-26T23:32:59.233Z,80.84
2017-09-26T23:37:56.794Z,78.94
2017-09-26T23:40:23.045Z,78.36
2017-09-26T23:42:49.286Z,78.82
2017-09-26T23:45:15.525Z,78.65
2017-09-26T23:47:41.737Z,78.51
2017-09-26T23:50:07.974Z,78.27
2017-09-26T23:52:34.200Z,77.65
2017-09-26T23:55:00.424Z,78.43
2017-09-26T23:57:26.639Z,77.56
2017-09-26T23:59:52.876Z,76.88
